Terminal Aerodrome Forecast
Issued by NWS

Home | Current Version | Previous Version | Text Only | Print | Product List | Glossary On
Versions: 1 2 3 4 5 6 7 8 9 10 11 12 13 14 15 16 17 18 19 20 21 22 23
000
FTUS43 KDLH 162000 AAB
TAFBRD
TAF AMD
KBRD 162057Z 1621/1718 05014G22KT 1/2SM SN OVC014
      TEMPO 1621/1623 1/4SM +SN BLSN OVC008
     FM162300 05016G28KT 1 1/2SM -SN BLSN OVC006
      TEMPO 1623/1702 3SM -SN BLSN OVC015
     FM170300 03013G22KT 4SM -SN SCT007 OVC015
     FM171400 36008KT P6SM BKN045=

USA.gov is the U.S. government's official web portal to all federal, state and local government web resources and services.